sensor_id;sensor_type;location;lat;lon;timestamp;P1;durP1;ratioP1;P2;durP2;ratioP2
41927;SDS011;27616;51.420;6.788;2022-07-24T00:01:36;6.55;;;3.72;;
41927;SDS011;27616;51.420;6.788;2022-07-24T00:04:03;8.02;;;3.63;;
41927;SDS011;27616;51.420;6.788;2022-07-24T00:06:29;7.30;;;4.10;;
41927;SDS011;27616;51.420;6.788;2022-07-24T00:08:56;8.13;;;3.90;;
41927;SDS011;27616;51.420;6.788;2022-07-24T00:11:23;4.70;;;3.50;;
41927;SDS011;27616;51.420;6.788;2022-07-24T00:13:49;5.68;;;3.83;;
41927;SDS011;27616;51.420;6.788;2022-07-24T00:16:15;6.32;;;3.15;;
41927;SDS011;27616;51.420;6.788;2022-07-24T00:18:40;7.10;;;3.85;;
41927;SDS011;27616;51.420;6.788;2022-07-24T00:21:07;5.15;;;3.70;;
41927;SDS011;27616;51.420;6.788;2022-07-24T00:23:32;6.13;;;3.97;;
41927;SDS011;27616;51.420;6.788;2022-07-24T00:25:58;7.50;;;3.80;;
41927;SDS011;27616;51.420;6.788;2022-07-24T00:28:24;4.82;;;3.30;;
41927;SDS011;27616;51.420;6.788;2022-07-24T00:30:50;5.13;;;3.35;;
41927;SDS011;27616;51.420;6.788;2022-07-24T00:33:16;5.90;;;3.50;;
41927;SDS011;27616;51.420;6.788;2022-07-24T00:35:41;5.97;;;3.83;;
41927;SDS011;27616;51.420;6.788;2022-07-24T00:38:08;5.03;;;3.63;;
41927;SDS011;27616;51.420;6.788;2022-07-24T00:40:35;5.90;;;3.97;;
41927;SDS011;27616;51.420;6.788;2022-07-24T00:43:01;5.75;;;3.65;;
41927;SDS011;27616;51.420;6.788;2022-07-24T00:45:28;4.95;;;3.47;;
41927;SDS011;27616;51.420;6.788;2022-07-24T00:47:54;5.85;;;3.63;;
41927;SDS011;27616;51.420;6.788;2022-07-24T00:50:20;6.00;;;3.42;;
41927;SDS011;27616;51.420;6.788;2022-07-24T00:52:46;6.30;;;3.60;;
41927;SDS011;27616;51.420;6.788;2022-07-24T00:55:12;5.78;;;3.70;;
41927;SDS011;27616;51.420;6.788;2022-07-24T00:57:38;5.88;;;3.75;;
41927;SDS011;27616;51.420;6.788;2022-07-24T01:00:05;8.30;;;3.80;;
41927;SDS011;27616;51.420;6.788;2022-07-24T01:02:32;5.68;;;3.97;;
41927;SDS011;27616;51.420;6.788;2022-07-24T01:04:58;6.45;;;3.92;;
41927;SDS011;27616;51.420;6.788;2022-07-24T01:07:24;7.03;;;3.83;;
41927;SDS011;27616;51.420;6.788;2022-07-24T01:09:51;6.03;;;3.70;;
41927;SDS011;27616;51.420;6.788;2022-07-24T01:12:17;7.15;;;3.97;;
41927;SDS011;27616;51.420;6.788;2022-07-24T01:14:43;5.10;;;3.92;;
41927;SDS011;27616;51.420;6.788;2022-07-24T01:17:10;6.32;;;4.10;;
41927;SDS011;27616;51.420;6.788;2022-07-24T01:19:36;5.82;;;3.38;;
41927;SDS011;27616;51.420;6.788;2022-07-24T01:22:03;6.63;;;4.03;;
41927;SDS011;27616;51.420;6.788;2022-07-24T01:24:30;6.93;;;4.30;;
41927;SDS011;27616;51.420;6.788;2022-07-24T01:26:56;6.70;;;4.10;;
41927;SDS011;27616;51.420;6.788;2022-07-24T01:29:22;7.35;;;4.55;;
41927;SDS011;27616;51.420;6.788;2022-07-24T01:31:47;5.45;;;4.10;;
41927;SDS011;27616;51.420;6.788;2022-07-24T01:34:13;5.32;;;3.92;;
41927;SDS011;27616;51.420;6.788;2022-07-24T01:36:39;6.68;;;4.53;;
41927;SDS011;27616;51.420;6.788;2022-07-24T01:39:05;7.10;;;4.40;;
41927;SDS011;27616;51.420;6.788;2022-07-24T01:41:31;6.32;;;4.50;;
41927;SDS011;27616;51.420;6.788;2022-07-24T01:43:57;6.95;;;4.53;;
41927;SDS011;27616;51.420;6.788;2022-07-24T01:46:23;5.72;;;4.15;;
41927;SDS011;27616;51.420;6.788;2022-07-24T01:48:49;7.50;;;4.32;;
41927;SDS011;27616;51.420;6.788;2022-07-24T01:51:15;6.15;;;4.03;;
41927;SDS011;27616;51.420;6.788;2022-07-24T01:53:41;5.97;;;3.90;;
41927;SDS011;27616;51.420;6.788;2022-07-24T01:56:06;7.03;;;4.40;;
41927;SDS011;27616;51.420;6.788;2022-07-24T01:58:32;7.75;;;4.00;;
41927;SDS011;27616;51.420;6.788;2022-07-24T02:00:58;6.18;;;4.45;;
41927;SDS011;27616;51.420;6.788;2022-07-24T02:03:24;6.85;;;4.22;;
41927;SDS011;27616;51.420;6.788;2022-07-24T02:05:50;8.70;;;4.28;;
41927;SDS011;27616;51.420;6.788;2022-07-24T02:08:16;6.70;;;4.30;;
41927;SDS011;27616;51.420;6.788;2022-07-24T02:10:41;5.93;;;4.63;;
41927;SDS011;27616;51.420;6.788;2022-07-24T02:13:08;6.78;;;3.88;;
41927;SDS011;27616;51.420;6.788;2022-07-24T02:15:34;5.22;;;3.90;;
41927;SDS011;27616;51.420;6.788;2022-07-24T02:18:00;6.95;;;4.20;;
41927;SDS011;27616;51.420;6.788;2022-07-24T02:20:27;5.07;;;4.00;;
41927;SDS011;27616;51.420;6.788;2022-07-24T02:22:53;4.85;;;3.95;;
41927;SDS011;27616;51.420;6.788;2022-07-24T02:25:19;7.78;;;4.60;;
41927;SDS011;27616;51.420;6.788;2022-07-24T02:27:46;6.75;;;4.38;;
41927;SDS011;27616;51.420;6.788;2022-07-24T02:30:16;6.15;;;4.00;;
41927;SDS011;27616;51.420;6.788;2022-07-24T02:32:44;6.28;;;4.55;;
41927;SDS011;27616;51.420;6.788;2022-07-24T02:35:10;9.55;;;4.93;;
41927;SDS011;27616;51.420;6.788;2022-07-24T02:37:40;5.93;;;4.10;;
41927;SDS011;27616;51.420;6.788;2022-07-24T02:40:07;4.97;;;3.78;;
41927;SDS011;27616;51.420;6.788;2022-07-24T02:42:34;6.63;;;4.00;;
41927;SDS011;27616;51.420;6.788;2022-07-24T02:45:01;7.55;;;4.45;;
41927;SDS011;27616;51.420;6.788;2022-07-24T02:47:28;8.65;;;4.13;;
41927;SDS011;27616;51.420;6.788;2022-07-24T02:49:53;5.25;;;3.88;;
41927;SDS011;27616;51.420;6.788;2022-07-24T02:52:19;5.97;;;4.18;;
41927;SDS011;27616;51.420;6.788;2022-07-24T02:54:45;7.90;;;4.55;;
41927;SDS011;27616;51.420;6.788;2022-07-24T02:57:11;5.80;;;4.30;;
41927;SDS011;27616;51.420;6.788;2022-07-24T02:59:36;6.60;;;4.63;;
41927;SDS011;27616;51.420;6.788;2022-07-24T03:02:02;6.28;;;4.53;;
41927;SDS011;27616;51.420;6.788;2022-07-24T03:04:28;8.85;;;4.90;;
41927;SDS011;27616;51.420;6.788;2022-07-24T03:06:54;6.40;;;3.60;;
41927;SDS011;27616;51.420;6.788;2022-07-24T03:09:19;8.88;;;4.47;;
41927;SDS011;27616;51.420;6.788;2022-07-24T03:11:45;6.07;;;3.97;;
41927;SDS011;27616;51.420;6.788;2022-07-24T03:14:11;5.03;;;3.80;;
41927;SDS011;27616;51.420;6.788;2022-07-24T03:16:37;4.93;;;4.07;;
41927;SDS011;27616;51.420;6.788;2022-07-24T03:19:03;5.13;;;3.83;;
41927;SDS011;27616;51.420;6.788;2022-07-24T03:21:29;5.93;;;4.18;;
41927;SDS011;27616;51.420;6.788;2022-07-24T03:23:54;7.70;;;4.38;;
41927;SDS011;27616;51.420;6.788;2022-07-24T03:26:20;5.22;;;4.07;;
41927;SDS011;27616;51.420;6.788;2022-07-24T03:28:46;6.18;;;3.97;;
41927;SDS011;27616;51.420;6.788;2022-07-24T03:31:12;4.78;;;3.63;;
41927;SDS011;27616;51.420;6.788;2022-07-24T03:33:37;6.60;;;4.05;;
41927;SDS011;27616;51.420;6.788;2022-07-24T03:36:03;6.03;;;4.13;;
41927;SDS011;27616;51.420;6.788;2022-07-24T03:38:29;5.50;;;4.10;;
41927;SDS011;27616;51.420;6.788;2022-07-24T03:40:55;5.35;;;3.85;;
41927;SDS011;27616;51.420;6.788;2022-07-24T03:43:21;5.15;;;3.75;;
41927;SDS011;27616;51.420;6.788;2022-07-24T03:45:46;6.97;;;4.30;;
41927;SDS011;27616;51.420;6.788;2022-07-24T03:48:12;5.35;;;4.25;;
41927;SDS011;27616;51.420;6.788;2022-07-24T03:50:38;5.38;;;3.65;;
41927;SDS011;27616;51.420;6.788;2022-07-24T03:53:04;7.25;;;4.00;;
41927;SDS011;27616;51.420;6.788;2022-07-24T03:55:30;5.30;;;4.38;;
41927;SDS011;27616;51.420;6.788;2022-07-24T03:57:55;8.40;;;4.47;;
41927;SDS011;27616;51.420;6.788;2022-07-24T04:00:21;6.65;;;4.13;;
41927;SDS011;27616;51.420;6.788;2022-07-24T04:02:47;5.80;;;4.45;;
41927;SDS011;27616;51.420;6.788;2022-07-24T04:05:13;7.03;;;4.30;;
41927;SDS011;27616;51.420;6.788;2022-07-24T04:07:38;7.13;;;4.40;;
41927;SDS011;27616;51.420;6.788;2022-07-24T04:10:05;6.97;;;4.53;;
41927;SDS011;27616;51.420;6.788;2022-07-24T04:12:32;7.10;;;4.25;;
41927;SDS011;27616;51.420;6.788;2022-07-24T04:14:59;5.97;;;4.18;;
41927;SDS011;27616;51.420;6.788;2022-07-24T04:17:25;7.97;;;4.50;;
41927;SDS011;27616;51.420;6.788;2022-07-24T04:19:51;5.18;;;3.97;;
41927;SDS011;27616;51.420;6.788;2022-07-24T04:22:16;6.13;;;4.35;;
41927;SDS011;27616;51.420;6.788;2022-07-24T04:24:42;7.05;;;3.88;;
41927;SDS011;27616;51.420;6.788;2022-07-24T04:27:08;5.32;;;4.05;;
41927;SDS011;27616;51.420;6.788;2022-07-24T04:29:34;5.88;;;4.25;;
41927;SDS011;27616;51.420;6.788;2022-07-24T04:31:59;6.32;;;4.60;;
41927;SDS011;27616;51.420;6.788;2022-07-24T04:34:25;7.25;;;4.55;;
41927;SDS011;27616;51.420;6.788;2022-07-24T04:36:51;6.13;;;4.10;;
41927;SDS011;27616;51.420;6.788;2022-07-24T04:39:17;7.03;;;4.30;;
41927;SDS011;27616;51.420;6.788;2022-07-24T04:41:43;5.43;;;4.40;;
41927;SDS011;27616;51.420;6.788;2022-07-24T04:44:08;5.95;;;4.50;;
41927;SDS011;27616;51.420;6.788;2022-07-24T04:46:34;7.13;;;4.82;;
41927;SDS011;27616;51.420;6.788;2022-07-24T04:49:00;8.75;;;4.40;;
41927;SDS011;27616;51.420;6.788;2022-07-24T04:51:26;7.30;;;4.70;;
41927;SDS011;27616;51.420;6.788;2022-07-24T04:53:52;5.45;;;4.40;;
41927;SDS011;27616;51.420;6.788;2022-07-24T04:56:18;5.53;;;4.28;;
41927;SDS011;27616;51.420;6.788;2022-07-24T04:58:45;5.82;;;4.70;;
41927;SDS011;27616;51.420;6.788;2022-07-24T05:01:11;5.57;;;4.75;;
41927;SDS011;27616;51.420;6.788;2022-07-24T05:03:37;5.43;;;4.10;;
41927;SDS011;27616;51.420;6.788;2022-07-24T05:06:03;5.65;;;4.18;;
41927;SDS011;27616;51.420;6.788;2022-07-24T05:08:28;6.70;;;4.25;;
41927;SDS011;27616;51.420;6.788;2022-07-24T05:10:54;6.72;;;4.43;;
41927;SDS011;27616;51.420;6.788;2022-07-24T05:13:20;6.80;;;4.18;;
41927;SDS011;27616;51.420;6.788;2022-07-24T05:15:46;8.18;;;4.70;;
41927;SDS011;27616;51.420;6.788;2022-07-24T05:18:11;7.53;;;4.65;;
41927;SDS011;27616;51.420;6.788;2022-07-24T05:20:37;5.97;;;4.38;;
41927;SDS011;27616;51.420;6.788;2022-07-24T05:23:03;7.80;;;4.40;;
41927;SDS011;27616;51.420;6.788;2022-07-24T05:25:29;6.88;;;4.47;;
41927;SDS011;27616;51.420;6.788;2022-07-24T05:27:55;5.80;;;4.55;;
41927;SDS011;27616;51.420;6.788;2022-07-24T05:30:20;7.13;;;4.80;;
41927;SDS011;27616;51.420;6.788;2022-07-24T05:32:46;8.57;;;5.63;;
41927;SDS011;27616;51.420;6.788;2022-07-24T05:35:12;7.65;;;4.82;;
41927;SDS011;27616;51.420;6.788;2022-07-24T05:37:38;7.35;;;4.60;;
41927;SDS011;27616;51.420;6.788;2022-07-24T05:40:04;9.50;;;5.07;;
41927;SDS011;27616;51.420;6.788;2022-07-24T05:42:30;7.93;;;4.85;;
41927;SDS011;27616;51.420;6.788;2022-07-24T05:44:56;6.20;;;4.75;;
41927;SDS011;27616;51.420;6.788;2022-07-24T05:47:21;7.03;;;4.72;;
41927;SDS011;27616;51.420;6.788;2022-07-24T05:49:47;6.05;;;5.05;;
41927;SDS011;27616;51.420;6.788;2022-07-24T05:52:13;7.88;;;4.93;;
41927;SDS011;27616;51.420;6.788;2022-07-24T05:54:39;10.18;;;5.40;;
41927;SDS011;27616;51.420;6.788;2022-07-24T05:57:04;7.35;;;5.28;;
41927;SDS011;27616;51.420;6.788;2022-07-24T05:59:30;6.88;;;4.95;;
41927;SDS011;27616;51.420;6.788;2022-07-24T06:01:56;6.88;;;5.43;;
41927;SDS011;27616;51.420;6.788;2022-07-24T06:04:22;8.32;;;5.68;;
41927;SDS011;27616;51.420;6.788;2022-07-24T06:06:47;8.20;;;5.60;;
41927;SDS011;27616;51.420;6.788;2022-07-24T06:09:13;8.25;;;5.50;;
41927;SDS011;27616;51.420;6.788;2022-07-24T06:11:39;6.85;;;5.43;;
41927;SDS011;27616;51.420;6.788;2022-07-24T06:14:05;7.13;;;5.00;;
41927;SDS011;27616;51.420;6.788;2022-07-24T06:16:31;7.75;;;5.43;;
41927;SDS011;27616;51.420;6.788;2022-07-24T06:18:56;10.05;;;5.90;;
41927;SDS011;27616;51.420;6.788;2022-07-24T06:21:22;7.05;;;5.38;;
41927;SDS011;27616;51.420;6.788;2022-07-24T06:23:48;8.40;;;5.32;;
41927;SDS011;27616;51.420;6.788;2022-07-24T06:26:14;6.57;;;4.80;;
41927;SDS011;27616;51.420;6.788;2022-07-24T06:28:39;8.32;;;5.55;;
41927;SDS011;27616;51.420;6.788;2022-07-24T06:31:05;10.25;;;5.38;;
41927;SDS011;27616;51.420;6.788;2022-07-24T06:33:31;8.52;;;5.10;;
41927;SDS011;27616;51.420;6.788;2022-07-24T06:35:57;7.68;;;5.47;;
41927;SDS011;27616;51.420;6.788;2022-07-24T06:38:24;8.70;;;5.43;;
41927;SDS011;27616;51.420;6.788;2022-07-24T06:40:49;7.70;;;5.60;;
41927;SDS011;27616;51.420;6.788;2022-07-24T06:43:15;6.57;;;4.90;;
41927;SDS011;27616;51.420;6.788;2022-07-24T06:45:41;8.52;;;5.65;;
41927;SDS011;27616;51.420;6.788;2022-07-24T06:48:08;6.20;;;4.60;;
41927;SDS011;27616;51.420;6.788;2022-07-24T06:50:34;10.13;;;5.47;;
41927;SDS011;27616;51.420;6.788;2022-07-24T06:53:00;5.88;;;5.00;;
41927;SDS011;27616;51.420;6.788;2022-07-24T06:55:26;7.60;;;5.13;;
41927;SDS011;27616;51.420;6.788;2022-07-24T06:57:51;6.90;;;5.50;;
41927;SDS011;27616;51.420;6.788;2022-07-24T07:00:18;7.28;;;5.13;;
41927;SDS011;27616;51.420;6.788;2022-07-24T07:02:43;7.47;;;5.00;;
41927;SDS011;27616;51.420;6.788;2022-07-24T07:05:10;5.90;;;5.03;;
41927;SDS011;27616;51.420;6.788;2022-07-24T07:07:36;5.38;;;4.63;;
41927;SDS011;27616;51.420;6.788;2022-07-24T07:10:04;5.88;;;4.75;;
41927;SDS011;27616;51.420;6.788;2022-07-24T07:12:31;7.30;;;4.75;;
41927;SDS011;27616;51.420;6.788;2022-07-24T07:14:57;8.38;;;5.10;;
41927;SDS011;27616;51.420;6.788;2022-07-24T07:17:24;6.32;;;4.57;;
41927;SDS011;27616;51.420;6.788;2022-07-24T07:19:50;10.23;;;5.20;;
41927;SDS011;27616;51.420;6.788;2022-07-24T07:22:16;8.48;;;5.18;;
41927;SDS011;27616;51.420;6.788;2022-07-24T07:24:42;7.30;;;5.00;;
41927;SDS011;27616;51.420;6.788;2022-07-24T07:27:08;6.63;;;4.75;;
41927;SDS011;27616;51.420;6.788;2022-07-24T07:29:34;9.15;;;6.18;;
41927;SDS011;27616;51.420;6.788;2022-07-24T07:31:59;10.45;;;6.63;;
41927;SDS011;27616;51.420;6.788;2022-07-24T07:34:25;7.15;;;5.88;;
41927;SDS011;27616;51.420;6.788;2022-07-24T07:36:52;10.35;;;6.85;;
41927;SDS011;27616;51.420;6.788;2022-07-24T07:39:18;10.50;;;6.60;;
41927;SDS011;27616;51.420;6.788;2022-07-24T07:41:44;10.20;;;7.70;;
41927;SDS011;27616;51.420;6.788;2022-07-24T07:44:09;10.25;;;7.13;;
41927;SDS011;27616;51.420;6.788;2022-07-24T07:46:35;8.88;;;6.78;;
41927;SDS011;27616;51.420;6.788;2022-07-24T07:49:01;10.75;;;6.95;;
41927;SDS011;27616;51.420;6.788;2022-07-24T07:51:27;9.48;;;6.82;;
41927;SDS011;27616;51.420;6.788;2022-07-24T07:53:52;8.90;;;6.35;;
41927;SDS011;27616;51.420;6.788;2022-07-24T07:56:18;10.45;;;6.93;;
41927;SDS011;27616;51.420;6.788;2022-07-24T07:58:45;16.95;;;11.43;;
41927;SDS011;27616;51.420;6.788;2022-07-24T08:01:13;17.10;;;10.15;;
41927;SDS011;27616;51.420;6.788;2022-07-24T08:03:41;13.80;;;9.13;;
41927;SDS011;27616;51.420;6.788;2022-07-24T08:06:07;12.15;;;7.88;;
41927;SDS011;27616;51.420;6.788;2022-07-24T08:08:33;13.60;;;8.90;;
41927;SDS011;27616;51.420;6.788;2022-07-24T08:10:59;13.82;;;9.07;;
41927;SDS011;27616;51.420;6.788;2022-07-24T08:13:24;13.15;;;8.05;;
41927;SDS011;27616;51.420;6.788;2022-07-24T08:15:51;13.45;;;8.32;;
41927;SDS011;27616;51.420;6.788;2022-07-24T08:18:17;14.18;;;8.90;;
41927;SDS011;27616;51.420;6.788;2022-07-24T08:20:43;13.38;;;9.23;;
41927;SDS011;27616;51.420;6.788;2022-07-24T08:23:09;13.40;;;8.77;;
41927;SDS011;27616;51.420;6.788;2022-07-24T08:25:35;10.98;;;8.10;;
41927;SDS011;27616;51.420;6.788;2022-07-24T08:28:00;9.88;;;7.55;;
41927;SDS011;27616;51.420;6.788;2022-07-24T08:30:26;11.70;;;8.43;;
41927;SDS011;27616;51.420;6.788;2022-07-24T08:32:52;15.48;;;8.77;;
41927;SDS011;27616;51.420;6.788;2022-07-24T08:35:18;10.55;;;6.90;;
41927;SDS011;27616;51.420;6.788;2022-07-24T08:37:45;13.43;;;9.35;;
41927;SDS011;27616;51.420;6.788;2022-07-24T08:40:12;9.77;;;7.20;;
41927;SDS011;27616;51.420;6.788;2022-07-24T08:42:39;9.43;;;7.10;;
41927;SDS011;27616;51.420;6.788;2022-07-24T08:45:06;9.60;;;7.03;;
41927;SDS011;27616;51.420;6.788;2022-07-24T08:47:32;10.18;;;6.90;;
41927;SDS011;27616;51.420;6.788;2022-07-24T08:49:58;11.50;;;8.95;;
41927;SDS011;27616;51.420;6.788;2022-07-24T08:52:25;11.88;;;8.65;;
41927;SDS011;27616;51.420;6.788;2022-07-24T08:54:52;13.75;;;8.73;;
41927;SDS011;27616;51.420;6.788;2022-07-24T08:57:18;11.00;;;7.70;;
41927;SDS011;27616;51.420;6.788;2022-07-24T08:59:44;11.70;;;7.80;;
41927;SDS011;27616;51.420;6.788;2022-07-24T09:02:10;13.38;;;8.02;;
41927;SDS011;27616;51.420;6.788;2022-07-24T09:04:40;10.82;;;7.90;;
41927;SDS011;27616;51.420;6.788;2022-07-24T09:07:08;11.90;;;8.50;;
41927;SDS011;27616;51.420;6.788;2022-07-24T09:09:40;13.20;;;10.10;;
41927;SDS011;27616;51.420;6.788;2022-07-24T09:14:35;9.93;;;7.90;;
41927;SDS011;27616;51.420;6.788;2022-07-24T09:17:10;10.40;;;7.10;;
41927;SDS011;27616;51.420;6.788;2022-07-24T09:19:53;11.85;;;8.13;;
41927;SDS011;27616;51.420;6.788;2022-07-24T09:27:32;11.40;;;8.23;;
41927;SDS011;27616;51.420;6.788;2022-07-24T09:29:59;14.07;;;8.90;;
41927;SDS011;27616;51.420;6.788;2022-07-24T09:32:25;15.38;;;10.23;;
41927;SDS011;27616;51.420;6.788;2022-07-24T09:34:52;12.02;;;8.73;;
41927;SDS011;27616;51.420;6.788;2022-07-24T09:37:18;10.98;;;7.57;;
41927;SDS011;27616;51.420;6.788;2022-07-24T09:39:45;10.82;;;6.88;;
41927;SDS011;27616;51.420;6.788;2022-07-24T09:42:11;10.65;;;8.07;;
41927;SDS011;27616;51.420;6.788;2022-07-24T09:44:37;13.43;;;8.57;;
41927;SDS011;27616;51.420;6.788;2022-07-24T09:47:11;12.10;;;7.47;;
41927;SDS011;27616;51.420;6.788;2022-07-24T09:49:37;10.30;;;7.43;;
41927;SDS011;27616;51.420;6.788;2022-07-24T09:54:45;10.02;;;7.05;;
41927;SDS011;27616;51.420;6.788;2022-07-24T09:57:23;9.20;;;7.05;;
41927;SDS011;27616;51.420;6.788;2022-07-24T09:59:51;10.30;;;7.43;;
41927;SDS011;27616;51.420;6.788;2022-07-24T10:02:19;11.02;;;8.10;;
41927;SDS011;27616;51.420;6.788;2022-07-24T10:04:49;11.80;;;7.28;;
41927;SDS011;27616;51.420;6.788;2022-07-24T10:07:17;12.90;;;8.63;;
41927;SDS011;27616;51.420;6.788;2022-07-24T10:09:48;11.48;;;7.63;;
41927;SDS011;27616;51.420;6.788;2022-07-24T10:12:20;10.60;;;7.00;;
41927;SDS011;27616;51.420;6.788;2022-07-24T10:14:49;11.30;;;6.85;;
41927;SDS011;27616;51.420;6.788;2022-07-24T10:17:16;12.38;;;7.75;;
41927;SDS011;27616;51.420;6.788;2022-07-24T10:19:46;9.93;;;7.43;;
41927;SDS011;27616;51.420;6.788;2022-07-24T10:22:20;11.88;;;7.75;;
41927;SDS011;27616;51.420;6.788;2022-07-24T10:24:57;12.27;;;7.65;;
41927;SDS011;27616;51.420;6.788;2022-07-24T10:27:35;12.60;;;7.20;;
41927;SDS011;27616;51.420;6.788;2022-07-24T10:30:09;11.05;;;7.13;;
41927;SDS011;27616;51.420;6.788;2022-07-24T10:32:36;12.23;;;8.00;;
41927;SDS011;27616;51.420;6.788;2022-07-24T10:35:13;11.18;;;6.70;;
41927;SDS011;27616;51.420;6.788;2022-07-24T10:37:53;12.00;;;7.60;;
41927;SDS011;27616;51.420;6.788;2022-07-24T10:40:50;14.73;;;7.47;;
41927;SDS011;27616;51.420;6.788;2022-07-24T10:43:20;12.15;;;7.88;;
41927;SDS011;27616;51.420;6.788;2022-07-24T10:46:29;12.45;;;7.10;;
41927;SDS011;27616;51.420;6.788;2022-07-24T10:48:37;10.27;;;7.32;;
41927;SDS011;27616;51.420;6.788;2022-07-24T10:51:08;12.50;;;7.25;;
41927;SDS011;27616;51.420;6.788;2022-07-24T10:53:46;9.98;;;6.97;;
41927;SDS011;27616;51.420;6.788;2022-07-24T10:59:05;11.27;;;6.80;;
41927;SDS011;27616;51.420;6.788;2022-07-24T11:04:23;10.15;;;6.55;;
41927;SDS011;27616;51.420;6.788;2022-07-24T11:06:52;9.10;;;6.20;;
41927;SDS011;27616;51.420;6.788;2022-07-24T11:09:20;8.05;;;6.40;;
41927;SDS011;27616;51.420;6.788;2022-07-24T11:20:05;10.88;;;5.93;;
41927;SDS011;27616;51.420;6.788;2022-07-24T11:22:46;8.13;;;6.38;;
41927;SDS011;27616;51.420;6.788;2022-07-24T11:25:21;6.38;;;5.57;;
41927;SDS011;27616;51.420;6.788;2022-07-24T11:30:32;7.85;;;6.15;;
41927;SDS011;27616;51.420;6.788;2022-07-24T11:32:58;9.10;;;6.38;;
41927;SDS011;27616;51.420;6.788;2022-07-24T11:35:43;8.68;;;6.63;;
41927;SDS011;27616;51.420;6.788;2022-07-24T11:38:09;9.48;;;5.85;;
41927;SDS011;27616;51.420;6.788;2022-07-24T11:40:35;8.68;;;6.10;;
41927;SDS011;27616;51.420;6.788;2022-07-24T11:43:03;9.77;;;6.78;;
41927;SDS011;27616;51.420;6.788;2022-07-24T11:47:56;8.68;;;6.05;;
41927;SDS011;27616;51.420;6.788;2022-07-24T11:50:23;8.00;;;5.50;;
41927;SDS011;27616;51.420;6.788;2022-07-24T11:52:50;11.02;;;6.13;;
41927;SDS011;27616;51.420;6.788;2022-07-24T11:55:17;8.18;;;6.28;;
41927;SDS011;27616;51.420;6.788;2022-07-24T11:57:48;8.70;;;6.32;;
41927;SDS011;27616;51.420;6.788;2022-07-24T12:00:20;8.43;;;6.32;;
41927;SDS011;27616;51.420;6.788;2022-07-24T12:02:53;10.55;;;5.78;;
41927;SDS011;27616;51.420;6.788;2022-07-24T12:05:24;7.93;;;6.28;;
41927;SDS011;27616;51.420;6.788;2022-07-24T12:07:52;9.20;;;5.60;;
41927;SDS011;27616;51.420;6.788;2022-07-24T12:10:19;8.18;;;6.00;;
41927;SDS011;27616;51.420;6.788;2022-07-24T12:12:46;8.32;;;5.65;;
41927;SDS011;27616;51.420;6.788;2022-07-24T12:18:01;6.88;;;5.43;;
41927;SDS011;27616;51.420;6.788;2022-07-24T12:22:55;9.17;;;6.67;;
41927;SDS011;27616;51.420;6.788;2022-07-24T12:25:23;8.48;;;7.03;;
41927;SDS011;27616;51.420;6.788;2022-07-24T12:27:49;8.23;;;6.35;;
41927;SDS011;27616;51.420;6.788;2022-07-24T12:32:55;9.82;;;6.13;;
41927;SDS011;27616;51.420;6.788;2022-07-24T12:35:26;9.35;;;6.07;;
41927;SDS011;27616;51.420;6.788;2022-07-24T12:37:54;7.38;;;5.05;;
41927;SDS011;27616;51.420;6.788;2022-07-24T12:40:25;6.70;;;4.90;;
41927;SDS011;27616;51.420;6.788;2022-07-24T12:43:03;6.47;;;5.35;;
41927;SDS011;27616;51.420;6.788;2022-07-24T12:45:37;8.35;;;5.90;;
41927;SDS011;27616;51.420;6.788;2022-07-24T12:48:15;7.32;;;5.25;;
41927;SDS011;27616;51.420;6.788;2022-07-24T12:51:02;8.20;;;5.03;;
41927;SDS011;27616;51.420;6.788;2022-07-24T12:53:29;7.43;;;5.35;;
41927;SDS011;27616;51.420;6.788;2022-07-24T12:56:09;7.50;;;5.13;;
41927;SDS011;27616;51.420;6.788;2022-07-24T12:58:51;6.75;;;4.80;;
41927;SDS011;27616;51.420;6.788;2022-07-24T13:01:21;5.85;;;4.82;;
41927;SDS011;27616;51.420;6.788;2022-07-24T13:06:35;6.43;;;4.80;;
41927;SDS011;27616;51.420;6.788;2022-07-24T13:09:04;9.00;;;4.82;;
41927;SDS011;27616;51.420;6.788;2022-07-24T13:11:31;8.23;;;4.90;;
41927;SDS011;27616;51.420;6.788;2022-07-24T13:13:57;5.50;;;4.65;;
41927;SDS011;27616;51.420;6.788;2022-07-24T13:16:26;7.68;;;5.10;;
41927;SDS011;27616;51.420;6.788;2022-07-24T13:18:54;9.93;;;5.90;;
41927;SDS011;27616;51.420;6.788;2022-07-24T13:21:20;9.70;;;5.40;;
41927;SDS011;27616;51.420;6.788;2022-07-24T13:23:46;9.20;;;5.57;;
41927;SDS011;27616;51.420;6.788;2022-07-24T13:26:12;6.07;;;4.90;;
41927;SDS011;27616;51.420;6.788;2022-07-24T13:28:38;7.82;;;5.10;;
41927;SDS011;27616;51.420;6.788;2022-07-24T13:31:03;8.32;;;5.20;;
41927;SDS011;27616;51.420;6.788;2022-07-24T13:33:30;7.40;;;4.88;;
41927;SDS011;27616;51.420;6.788;2022-07-24T13:35:56;8.73;;;6.35;;
41927;SDS011;27616;51.420;6.788;2022-07-24T13:38:22;6.22;;;4.68;;
41927;SDS011;27616;51.420;6.788;2022-07-24T13:40:48;7.00;;;5.13;;
41927;SDS011;27616;51.420;6.788;2022-07-24T13:43:14;7.10;;;5.55;;
41927;SDS011;27616;51.420;6.788;2022-07-24T13:45:39;7.75;;;6.07;;
41927;SDS011;27616;51.420;6.788;2022-07-24T13:48:05;8.40;;;6.57;;
41927;SDS011;27616;51.420;6.788;2022-07-24T13:50:31;8.77;;;7.13;;
41927;SDS011;27616;51.420;6.788;2022-07-24T13:52:57;9.18;;;7.57;;
41927;SDS011;27616;51.420;6.788;2022-07-24T13:55:23;8.52;;;6.53;;
41927;SDS011;27616;51.420;6.788;2022-07-24T13:57:49;9.52;;;6.90;;
41927;SDS011;27616;51.420;6.788;2022-07-24T14:00:15;7.90;;;5.60;;
41927;SDS011;27616;51.420;6.788;2022-07-24T14:02:41;7.65;;;5.15;;
41927;SDS011;27616;51.420;6.788;2022-07-24T14:05:07;6.35;;;4.70;;
41927;SDS011;27616;51.420;6.788;2022-07-24T14:07:33;9.07;;;5.38;;
41927;SDS011;27616;51.420;6.788;2022-07-24T14:09:59;6.88;;;4.95;;
41927;SDS011;27616;51.420;6.788;2022-07-24T14:12:25;7.00;;;4.95;;
41927;SDS011;27616;51.420;6.788;2022-07-24T14:14:51;5.60;;;4.65;;
41927;SDS011;27616;51.420;6.788;2022-07-24T14:17:17;5.97;;;4.63;;
41927;SDS011;27616;51.420;6.788;2022-07-24T14:19:43;7.53;;;5.15;;
41927;SDS011;27616;51.420;6.788;2022-07-24T14:22:09;6.18;;;4.22;;
41927;SDS011;27616;51.420;6.788;2022-07-24T14:24:34;6.72;;;4.38;;
41927;SDS011;27616;51.420;6.788;2022-07-24T14:27:00;5.78;;;4.28;;
41927;SDS011;27616;51.420;6.788;2022-07-24T14:29:26;5.85;;;4.43;;
41927;SDS011;27616;51.420;6.788;2022-07-24T14:31:52;6.93;;;4.55;;
41927;SDS011;27616;51.420;6.788;2022-07-24T14:34:18;6.85;;;4.40;;
41927;SDS011;27616;51.420;6.788;2022-07-24T14:36:44;7.07;;;4.78;;
41927;SDS011;27616;51.420;6.788;2022-07-24T14:39:10;6.57;;;4.47;;
41927;SDS011;27616;51.420;6.788;2022-07-24T14:41:36;6.55;;;4.47;;
41927;SDS011;27616;51.420;6.788;2022-07-24T14:44:03;8.13;;;4.80;;
41927;SDS011;27616;51.420;6.788;2022-07-24T14:46:29;6.80;;;4.60;;
41927;SDS011;27616;51.420;6.788;2022-07-24T14:48:55;5.45;;;4.22;;
41927;SDS011;27616;51.420;6.788;2022-07-24T14:51:21;6.72;;;4.30;;
41927;SDS011;27616;51.420;6.788;2022-07-24T14:53:47;6.03;;;4.43;;
41927;SDS011;27616;51.420;6.788;2022-07-24T14:56:13;6.53;;;4.57;;
41927;SDS011;27616;51.420;6.788;2022-07-24T14:58:39;7.38;;;4.70;;
41927;SDS011;27616;51.420;6.788;2022-07-24T15:01:04;7.88;;;4.90;;
41927;SDS011;27616;51.420;6.788;2022-07-24T15:03:30;6.75;;;4.30;;
41927;SDS011;27616;51.420;6.788;2022-07-24T15:05:56;5.63;;;4.72;;
41927;SDS011;27616;51.420;6.788;2022-07-24T15:08:22;8.40;;;5.90;;
41927;SDS011;27616;51.420;6.788;2022-07-24T15:10:48;10.25;;;6.78;;
41927;SDS011;27616;51.420;6.788;2022-07-24T15:13:14;6.78;;;4.80;;
41927;SDS011;27616;51.420;6.788;2022-07-24T15:15:40;5.93;;;4.82;;
41927;SDS011;27616;51.420;6.788;2022-07-24T15:18:06;7.57;;;4.60;;
41927;SDS011;27616;51.420;6.788;2022-07-24T15:20:31;6.82;;;4.40;;
41927;SDS011;27616;51.420;6.788;2022-07-24T15:22:57;6.03;;;4.78;;
41927;SDS011;27616;51.420;6.788;2022-07-24T15:25:23;6.75;;;4.57;;